createdAt,value
2019-02-09T00:01:57.325Z,26.59
2019-02-09T00:07:52.362Z,27.37
2019-02-09T00:13:47.360Z,25.62
2019-02-09T00:19:42.363Z,35.62
2019-02-09T00:25:37.335Z,33.91
2019-02-09T00:31:32.416Z,34.57
2019-02-09T00:37:27.335Z,33.02
2019-02-09T00:43:22.355Z,35.83
2019-02-09T00:49:17.418Z,25.02
2019-02-09T00:55:12.427Z,29.13
2019-02-09T01:01:07.348Z,30.8
2019-02-09T01:07:02.364Z,29.18
2019-02-09T01:12:57.344Z,29.27
2019-02-09T01:18:52.411Z,23.3
2019-02-09T01:24:47.358Z,20.7
2019-02-09T01:30:42.427Z,25.2
2019-02-09T01:36:37.380Z,22.58
2019-02-09T01:42:32.387Z,25.55
2019-02-09T01:48:27.386Z,28.13
2019-02-09T01:54:22.404Z,30.92
2019-02-09T02:00:17.410Z,29.25
2019-02-09T02:06:12.400Z,29.04
2019-02-09T02:12:07.378Z,27.84
2019-02-09T02:18:02.391Z,32.56
2019-02-09T02:23:57.386Z,27.73
2019-02-09T02:29:52.408Z,29.43
2019-02-09T02:35:47.410Z,26.87
2019-02-09T02:41:42.417Z,31.1
2019-02-09T02:47:37.593Z,31.71
2019-02-09T02:53:32.430Z,29.42
2019-02-09T02:59:27.396Z,24.28
2019-02-09T03:05:22.420Z,29.52
2019-02-09T03:11:17.465Z,29.37
2019-02-09T03:17:12.435Z,32.96
2019-02-09T03:23:07.471Z,34.24
2019-02-09T03:29:02.479Z,33.31
2019-02-09T03:34:57.430Z,31.86
2019-02-09T03:40:52.491Z,27.71
2019-02-09T03:46:47.469Z,31.55
2019-02-09T03:52:42.490Z,31.69
2019-02-09T03:58:37.462Z,27.43
2019-02-09T04:04:32.453Z,26.94
2019-02-09T04:10:27.453Z,30.88
2019-02-09T04:16:22.457Z,24.89
2019-02-09T04:22:17.455Z,27.84
2019-02-09T04:28:12.550Z,24.72
2019-02-09T04:34:07.462Z,29.91
2019-02-09T04:40:02.474Z,25.65
2019-02-09T04:45:57.484Z,27.53
2019-02-09T04:51:52.476Z,24.12
2019-02-09T04:57:47.485Z,27.59
2019-02-09T05:03:42.483Z,31
2019-02-09T05:09:37.475Z,30.8
2019-02-09T05:15:32.523Z,33.95
2019-02-09T05:21:27.470Z,33.66
2019-02-09T05:27:22.487Z,35.02
2019-02-09T05:33:17.505Z,32.65
2019-02-09T05:39:12.508Z,31.03
2019-02-09T05:45:07.516Z,32.31
2019-02-09T05:51:02.511Z,31.19
2019-02-09T05:56:57.502Z,27.48
2019-02-09T06:02:52.517Z,26.8
2019-02-09T06:08:47.536Z,30.27
2019-02-09T06:14:42.531Z,29.97
2019-02-09T06:20:37.539Z,30.6
2019-02-09T06:26:32.558Z,26.55
2019-02-09T06:32:27.555Z,28.47
2019-02-09T06:38:22.522Z,29.4
2019-02-09T06:44:17.552Z,30.15
2019-02-09T06:50:12.553Z,26.99
2019-02-09T06:56:07.532Z,28.33
2019-02-09T07:02:02.523Z,28.37
2019-02-09T07:07:57.558Z,21.82
2019-02-09T07:13:52.572Z,41.6
2019-02-09T07:19:47.578Z,41.14
2019-02-09T07:25:42.606Z,43.54
2019-02-09T07:31:37.565Z,42.41
2019-02-09T07:37:32.578Z,33.89
2019-02-09T07:43:27.560Z,31.43
2019-02-09T07:49:22.559Z,58.53
2019-02-09T07:55:17.583Z,47.22
2019-02-09T08:01:12.588Z,56.65
2019-02-09T08:07:07.581Z,64.9
2019-02-09T08:13:02.600Z,56.41
2019-02-09T08:18:57.583Z,49.87
2019-02-09T08:24:52.570Z,47.44
2019-02-09T08:30:47.587Z,66.33
2019-02-09T08:36:43.373Z,51.77
2019-02-09T08:42:37.596Z,49.18
2019-02-09T08:48:32.614Z,48.33
2019-02-09T08:54:27.611Z,45.43
2019-02-09T09:00:22.676Z,52.32
2019-02-09T09:06:17.688Z,50.77
2019-02-09T09:12:12.602Z,48.69
2019-02-09T09:18:07.613Z,57.85
2019-02-09T09:24:02.647Z,42.62
2019-02-09T09:29:57.616Z,39.22
2019-02-09T09:35:52.633Z,40.91
2019-02-09T09:41:50.641Z,46.61
2019-02-09T09:47:42.652Z,40.78
2019-02-09T09:53:37.625Z,41.78
2019-02-09T09:59:32.700Z,42.3
2019-02-09T10:05:27.651Z,43.67
2019-02-09T10:11:22.645Z,53.88
2019-02-09T10:17:17.644Z,48.94
2019-02-09T10:23:12.653Z,39.83
2019-02-09T10:29:07.633Z,45.56
2019-02-09T10:35:02.677Z,40.4
2019-02-09T10:40:57.676Z,48.74
2019-02-09T10:46:52.669Z,42.36
2019-02-09T10:52:47.697Z,42.76
2019-02-09T10:58:42.664Z,50.16
2019-02-09T11:04:37.666Z,53.6
2019-02-09T11:10:32.667Z,51.89
2019-02-09T11:16:27.694Z,57.5
2019-02-09T11:22:22.673Z,59.17
2019-02-09T11:28:17.740Z,52.28
2019-02-09T11:34:12.678Z,46.75
2019-02-09T11:40:07.676Z,43.45
2019-02-09T11:46:02.686Z,43.46
2019-02-09T11:51:57.722Z,35.44
2019-02-09T11:57:52.699Z,39.88
2019-02-09T12:03:47.699Z,52.82
2019-02-09T12:09:42.716Z,71.69
2019-02-09T12:15:37.735Z,49.23
2019-02-09T12:21:32.737Z,52.1
2019-02-09T12:27:27.734Z,55.98
2019-02-09T12:33:23.462Z,48.4
2019-02-09T12:39:17.754Z,52.14
2019-02-09T12:45:12.774Z,47.82
2019-02-09T12:51:07.731Z,48.71
2019-02-09T12:57:02.736Z,45.03
2019-02-09T13:02:57.762Z,48.8
2019-02-09T13:08:52.747Z,49.18
2019-02-09T13:14:47.759Z,55.08
2019-02-09T13:20:42.747Z,48.09
2019-02-09T13:26:37.812Z,51.23
2019-02-09T13:32:32.754Z,53.81
2019-02-09T13:38:27.787Z,65.43
2019-02-09T13:44:22.777Z,51.11
2019-02-09T13:50:17.796Z,60.72
2019-02-09T13:56:12.783Z,58.61
2019-02-09T14:02:07.820Z,56.38
2019-02-09T14:08:02.798Z,52.77
2019-02-09T14:13:57.787Z,59.28
2019-02-09T14:19:52.835Z,53.99
2019-02-09T14:25:48.018Z,47.96
2019-02-09T14:31:42.811Z,50.73
2019-02-09T14:37:37.806Z,51.68
2019-02-09T14:43:32.791Z,57.12
2019-02-09T14:49:27.788Z,50.43
2019-02-09T14:55:22.806Z,54.57
2019-02-09T15:01:17.813Z,58.18
2019-02-09T15:07:12.824Z,59.44
2019-02-09T15:13:07.830Z,62.17
2019-02-09T15:19:02.823Z,70.35
2019-02-09T15:24:57.810Z,71.96
2019-02-09T15:30:52.885Z,75.62
2019-02-09T15:36:47.826Z,70.71
2019-02-09T15:42:42.855Z,69.16
2019-02-09T15:48:37.841Z,68.36
2019-02-09T15:54:32.840Z,67.82
2019-02-09T16:00:27.835Z,76.67
2019-02-09T16:06:22.839Z,77.14
2019-02-09T16:12:17.935Z,82.67
2019-02-09T16:18:12.868Z,84.28
2019-02-09T16:24:07.851Z,81.14
2019-02-09T16:30:02.875Z,90.33
2019-02-09T16:35:57.855Z,99.73
2019-02-09T16:41:52.878Z,120.93
2019-02-09T16:47:47.879Z,120.28
2019-02-09T16:53:42.887Z,110.2
2019-02-09T16:59:37.887Z,122.63
2019-02-09T17:05:32.894Z,157.37
2019-02-09T17:11:27.878Z,135.98
2019-02-09T17:17:22.920Z,137.96
2019-02-09T17:23:17.903Z,121.46
2019-02-09T17:29:12.890Z,124.24
2019-02-09T17:35:07.935Z,142.06
2019-02-09T17:41:02.911Z,157.88
2019-02-09T17:46:57.908Z,165.35
2019-02-09T17:52:52.902Z,148.45
2019-02-09T17:58:47.955Z,142.92
2019-02-09T18:04:48.383Z,146.4
2019-02-09T18:10:39.351Z,150.54
2019-02-09T18:16:32.930Z,140.13
2019-02-09T18:22:27.921Z,141.92
2019-02-09T18:28:22.961Z,152.53
2019-02-09T18:34:17.930Z,161.53
2019-02-09T18:40:12.918Z,160.43
2019-02-09T18:46:07.922Z,165.13
2019-02-09T18:52:02.925Z,160.92
2019-02-09T18:58:01.149Z,153.84
2019-02-09T19:03:52.936Z,157.94
2019-02-09T19:09:47.966Z,200.84
2019-02-09T19:15:42.963Z,163.6
2019-02-09T19:21:37.949Z,157.59
2019-02-09T19:27:32.952Z,163.29
2019-02-09T19:33:27.972Z,164.49
2019-02-09T19:39:23.081Z,158.84
2019-02-09T19:45:17.958Z,149.36
2019-02-09T19:51:12.978Z,164.28
2019-02-09T19:57:07.986Z,166.91
2019-02-09T20:03:03.057Z,178.69
2019-02-09T20:08:58.006Z,189.07
2019-02-09T20:14:52.996Z,210.19
2019-02-09T20:20:47.978Z,186.68
2019-02-09T20:26:43.018Z,178.18
2019-02-09T20:32:38.003Z,176.52
2019-02-09T20:38:33.003Z,189.04
2019-02-09T20:44:28.040Z,184.06
2019-02-09T20:50:23.054Z,167.07
2019-02-09T20:56:18.029Z,168.86
2019-02-09T21:02:13.024Z,146.08
2019-02-09T21:08:08.138Z,124.35
2019-02-09T21:14:03.045Z,119.02
2019-02-09T21:19:58.036Z,103.01
2019-02-09T21:25:53.037Z,97.57
2019-02-09T21:31:48.067Z,115.34
2019-02-09T21:37:43.065Z,97.8
2019-02-09T21:43:38.087Z,105.37
2019-02-09T21:49:33.055Z,107.13
2019-02-09T21:55:28.061Z,109.18
2019-02-09T22:01:23.056Z,109.65
2019-02-09T22:07:18.048Z,107.96
2019-02-09T22:13:13.077Z,103.59
2019-02-09T22:19:08.092Z,110.54
2019-02-09T22:25:03.234Z,117.1
2019-02-09T22:30:58.244Z,112.73
2019-02-09T22:36:53.150Z,101.23
2019-02-09T22:42:48.072Z,98.61
2019-02-09T22:48:43.075Z,102.77
2019-02-09T22:54:38.078Z,97.47
2019-02-09T23:00:33.079Z,99.03
2019-02-09T23:06:28.079Z,93.82
2019-02-09T23:12:23.081Z,100.08
2019-02-09T23:18:18.127Z,102.51
2019-02-09T23:24:13.089Z,98.12
2019-02-09T23:30:08.132Z,99.16
2019-02-09T23:36:03.143Z,93.56
2019-02-09T23:41:58.115Z,92
2019-02-09T23:47:53.115Z,95.83
2019-02-09T23:53:48.160Z,86.86
2019-02-09T23:59:43.161Z,87.36
